createdAt,value
2022-08-24T00:00:19.614Z,25.08
2022-08-24T00:00:51.049Z,25.09
2022-08-24T00:01:22.538Z,25.08
2022-08-24T00:01:54.058Z,25.07
2022-08-24T00:02:25.715Z,25.08
2022-08-24T00:02:57.334Z,25.07
2022-08-24T00:03:34.490Z,25.06
2022-08-24T00:04:06.297Z,25.06
2022-08-24T00:04:37.723Z,25.07
2022-08-24T00:05:14.007Z,25.06
2022-08-24T00:05:46.080Z,25.05
2022-08-24T00:06:17.503Z,25.06
2022-08-24T00:06:48.966Z,25.05
2022-08-24T00:07:27.082Z,25.05
2022-08-24T00:07:59.518Z,25.05
2022-08-24T00:08:31.006Z,25.05
2022-08-24T00:09:02.440Z,25.04
2022-08-24T00:09:33.873Z,25.04
2022-08-24T00:10:05.304Z,25.03
2022-08-24T00:10:36.731Z,25.04
2022-08-24T00:11:08.160Z,25.03
2022-08-24T00:11:39.595Z,25.04
2022-08-24T00:12:11.137Z,25.02
2022-08-24T00:12:44.554Z,25.02
2022-08-24T00:13:16.006Z,25.01
2022-08-24T00:13:47.431Z,25.02
2022-08-24T00:14:18.865Z,25.00
2022-08-24T00:14:50.293Z,25.02
2022-08-24T00:15:21.724Z,25.01
2022-08-24T00:15:53.150Z,25.01
2022-08-24T00:16:24.659Z,25.01
2022-08-24T00:16:56.172Z,25.00
2022-08-24T00:17:27.759Z,25.00
2022-08-24T00:17:59.200Z,24.99
2022-08-24T00:18:30.632Z,24.98
2022-08-24T00:19:02.066Z,25.00
2022-08-24T00:19:33.580Z,25.00
2022-08-24T00:20:05.006Z,24.98
2022-08-24T00:20:36.441Z,24.98
2022-08-24T00:21:07.877Z,24.97
2022-08-24T00:21:39.312Z,24.97
2022-08-24T00:22:11.103Z,24.98
2022-08-24T00:22:42.638Z,24.97
2022-08-24T00:23:14.071Z,24.97
2022-08-24T00:23:45.496Z,24.97
2022-08-24T00:24:16.935Z,24.97
2022-08-24T00:24:48.378Z,24.96
2022-08-24T00:25:19.803Z,24.96
2022-08-24T00:25:51.230Z,24.96
2022-08-24T00:26:29.111Z,24.95
2022-08-24T00:27:00.808Z,24.95
2022-08-24T00:27:32.234Z,24.95
2022-08-24T00:28:03.864Z,24.94
2022-08-24T00:28:35.383Z,24.94
2022-08-24T00:29:07.725Z,24.95
2022-08-24T00:29:39.309Z,24.94
2022-08-24T00:30:10.746Z,24.93
2022-08-24T00:30:42.171Z,24.94
2022-08-24T00:31:13.640Z,24.93
2022-08-24T00:31:45.222Z,24.93
2022-08-24T00:32:16.696Z,24.93
2022-08-24T00:32:49.418Z,24.92
2022-08-24T00:33:20.888Z,24.92
2022-08-24T00:33:52.324Z,24.92
2022-08-24T00:34:23.751Z,24.90
2022-08-24T00:34:58.958Z,24.92
2022-08-24T00:35:30.824Z,24.91
2022-08-24T00:36:02.252Z,24.91
2022-08-24T00:36:36.288Z,24.90
2022-08-24T00:37:07.723Z,24.91
2022-08-24T00:37:39.160Z,24.90
2022-08-24T00:38:10.675Z,24.91
2022-08-24T00:38:42.107Z,24.90
2022-08-24T00:39:13.537Z,24.88
2022-08-24T00:39:45.005Z,24.89
2022-08-24T00:40:16.505Z,24.88
2022-08-24T00:40:47.985Z,24.89
2022-08-24T00:41:19.419Z,24.89
2022-08-24T00:41:50.856Z,24.88
2022-08-24T00:42:22.289Z,24.88
2022-08-24T00:42:53.721Z,24.87
2022-08-24T00:43:25.247Z,24.87
2022-08-24T00:43:56.672Z,24.87
2022-08-24T00:44:28.100Z,24.87
2022-08-24T00:44:59.525Z,24.86
2022-08-24T00:45:30.997Z,24.85
2022-08-24T00:46:02.480Z,24.86
2022-08-24T00:46:33.984Z,24.85
2022-08-24T00:47:05.422Z,24.83
2022-08-24T00:47:36.857Z,24.85
2022-08-24T00:48:08.295Z,24.83
2022-08-24T00:48:39.886Z,24.83
2022-08-24T00:49:11.346Z,24.82
2022-08-24T00:49:42.773Z,24.82
2022-08-24T00:50:14.203Z,24.83
2022-08-24T00:50:45.652Z,24.82
2022-08-24T00:51:17.085Z,24.82
2022-08-24T00:51:48.742Z,24.81
2022-08-24T00:52:20.930Z,24.82
2022-08-24T00:52:52.355Z,24.81
2022-08-24T00:53:23.786Z,24.80
2022-08-24T00:53:55.265Z,24.81
2022-08-24T00:54:26.686Z,24.79
2022-08-24T00:54:58.124Z,24.79
2022-08-24T00:55:29.560Z,24.79
2022-08-24T00:56:00.992Z,24.80
2022-08-24T00:56:32.417Z,24.79
2022-08-24T00:57:03.854Z,24.79
2022-08-24T00:57:35.344Z,24.79
2022-08-24T00:58:06.780Z,24.78
2022-08-24T00:58:39.669Z,24.78
2022-08-24T00:59:11.243Z,24.78
2022-08-24T00:59:42.675Z,24.77
2022-08-24T01:00:14.100Z,24.78
2022-08-24T01:00:45.564Z,24.77
2022-08-24T01:01:20.186Z,24.76
2022-08-24T01:01:51.707Z,24.77
2022-08-24T01:02:23.506Z,24.77
2022-08-24T01:02:54.968Z,24.76
2022-08-24T01:03:26.399Z,24.77
2022-08-24T01:03:57.829Z,24.75
2022-08-24T01:04:29.396Z,24.75
2022-08-24T01:05:00.838Z,24.75
2022-08-24T01:05:32.267Z,24.75
2022-08-24T01:06:03.706Z,24.75
2022-08-24T01:06:35.143Z,24.74
2022-08-24T01:07:06.568Z,24.73
2022-08-24T01:07:37.997Z,24.71
2022-08-24T01:08:09.427Z,24.73
2022-08-24T01:08:40.856Z,24.73
2022-08-24T01:09:12.299Z,24.71
2022-08-24T01:09:43.853Z,24.72
2022-08-24T01:10:15.287Z,24.72
2022-08-24T01:10:46.720Z,24.72
2022-08-24T01:11:18.148Z,24.71
2022-08-24T01:11:49.581Z,24.71
2022-08-24T01:12:21.005Z,24.70
2022-08-24T01:12:59.998Z,24.69
2022-08-24T01:13:32.300Z,24.69
2022-08-24T01:14:03.731Z,24.70
2022-08-24T01:14:35.161Z,24.69
2022-08-24T01:15:06.714Z,24.68
2022-08-24T01:15:38.145Z,24.68
2022-08-24T01:16:09.643Z,24.67
2022-08-24T01:16:41.170Z,24.66
2022-08-24T01:17:12.636Z,24.67
2022-08-24T01:17:44.066Z,24.66
2022-08-24T01:18:15.504Z,24.65
2022-08-24T01:18:46.930Z,24.66
2022-08-24T01:19:18.355Z,24.67
2022-08-24T01:19:49.780Z,24.66
2022-08-24T01:20:21.279Z,24.66
2022-08-24T01:20:52.709Z,24.66
2022-08-24T01:21:24.146Z,24.66
2022-08-24T01:21:55.645Z,24.65
2022-08-24T01:22:27.078Z,24.65
2022-08-24T01:22:58.537Z,24.65
2022-08-24T01:23:34.220Z,24.64
2022-08-24T01:24:08.183Z,24.64
2022-08-24T01:24:39.621Z,24.64
2022-08-24T01:25:11.044Z,24.63
2022-08-24T01:25:42.512Z,24.64
2022-08-24T01:26:15.072Z,24.64
2022-08-24T01:26:47.929Z,24.62
2022-08-24T01:27:20.479Z,24.62
2022-08-24T01:27:59.462Z,24.62
2022-08-24T01:28:30.901Z,24.62
2022-08-24T01:29:04.859Z,24.61
2022-08-24T01:29:37.598Z,24.62
2022-08-24T01:30:09.169Z,24.61
2022-08-24T01:30:41.651Z,24.61
2022-08-24T01:31:13.193Z,24.61
2022-08-24T01:31:44.700Z,24.61
2022-08-24T01:32:16.992Z,24.60
2022-08-24T01:32:48.416Z,24.61
2022-08-24T01:33:19.856Z,24.60
2022-08-24T01:33:51.295Z,24.59
2022-08-24T01:34:22.727Z,24.60
2022-08-24T01:34:54.162Z,24.60
2022-08-24T01:35:25.591Z,24.60
2022-08-24T01:35:57.037Z,24.58
2022-08-24T01:36:28.797Z,24.58
2022-08-24T01:37:00.290Z,24.58
2022-08-24T01:37:31.740Z,24.58
2022-08-24T01:38:03.417Z,24.58
2022-08-24T01:38:34.976Z,24.57
2022-08-24T01:39:06.452Z,24.57
2022-08-24T01:39:37.885Z,24.57
2022-08-24T01:40:09.374Z,24.57
2022-08-24T01:40:40.851Z,24.57
2022-08-24T01:41:12.404Z,24.57
2022-08-24T01:41:44.160Z,24.55
2022-08-24T01:42:15.593Z,24.55
2022-08-24T01:42:47.970Z,24.55
2022-08-24T01:43:19.397Z,24.54
2022-08-24T01:43:50.828Z,24.54
2022-08-24T01:44:22.270Z,24.54
2022-08-24T01:44:53.706Z,24.53
2022-08-24T01:45:25.136Z,24.53
2022-08-24T01:45:56.577Z,24.53
2022-08-24T01:46:28.053Z,24.53
2022-08-24T01:46:59.726Z,24.51
2022-08-24T01:47:31.227Z,24.52
2022-08-24T01:48:02.740Z,24.52
2022-08-24T01:48:34.284Z,24.52
2022-08-24T01:49:05.703Z,24.52
2022-08-24T01:49:37.131Z,24.51
2022-08-24T01:50:08.556Z,24.51
2022-08-24T01:50:39.989Z,24.51
2022-08-24T01:51:11.672Z,24.51
2022-08-24T01:51:43.105Z,24.51
2022-08-24T01:52:14.626Z,24.50
2022-08-24T01:53:04.367Z,24.50
2022-08-24T01:53:36.969Z,24.49
2022-08-24T01:54:08.412Z,24.49
2022-08-24T01:54:39.843Z,24.49
2022-08-24T01:55:15.049Z,24.50
2022-08-24T01:55:50.732Z,24.48
2022-08-24T01:56:22.164Z,24.48
2022-08-24T01:56:53.596Z,24.49
2022-08-24T01:57:25.615Z,24.48
2022-08-24T01:57:57.044Z,24.48
2022-08-24T01:58:28.481Z,24.47
2022-08-24T01:58:59.929Z,24.47
2022-08-24T01:59:31.360Z,24.46
2022-08-24T02:00:02.797Z,24.47
2022-08-24T02:00:34.217Z,24.47
2022-08-24T02:01:05.653Z,24.45
2022-08-24T02:01:37.856Z,24.45
2022-08-24T02:02:09.319Z,24.46
2022-08-24T02:02:40.905Z,24.45
2022-08-24T02:03:12.466Z,24.44
2022-08-24T02:03:43.932Z,24.44
2022-08-24T02:04:17.879Z,24.45
2022-08-24T02:04:50.427Z,24.44
2022-08-24T02:05:21.877Z,24.44
2022-08-24T02:05:53.303Z,24.43
2022-08-24T02:06:25.160Z,24.43
2022-08-24T02:06:56.644Z,24.43
2022-08-24T02:07:28.076Z,24.42
2022-08-24T02:07:59.576Z,24.41
2022-08-24T02:08:31.008Z,24.41
2022-08-24T02:09:02.433Z,24.41
2022-08-24T02:09:33.882Z,24.42
2022-08-24T02:10:05.322Z,24.39
2022-08-24T02:10:36.860Z,24.40
2022-08-24T02:11:08.286Z,24.40
2022-08-24T02:11:39.729Z,24.40
2022-08-24T02:12:11.168Z,24.40
2022-08-24T02:12:42.600Z,24.39
2022-08-24T02:13:14.149Z,24.38
2022-08-24T02:13:46.605Z,24.38
2022-08-24T02:14:18.037Z,24.38
2022-08-24T02:14:50.616Z,24.38
2022-08-24T02:15:22.052Z,24.38
2022-08-24T02:15:53.526Z,24.37
2022-08-24T02:16:25.024Z,24.37
2022-08-24T02:16:56.472Z,24.37
2022-08-24T02:17:29.824Z,24.36
2022-08-24T02:18:01.251Z,24.37
2022-08-24T02:18:32.813Z,24.38
2022-08-24T02:19:04.246Z,24.36
2022-08-24T02:19:35.672Z,24.37
2022-08-24T02:20:07.100Z,24.36
2022-08-24T02:20:38.534Z,24.37
2022-08-24T02:21:09.964Z,24.36
2022-08-24T02:21:41.399Z,24.35
2022-08-24T02:22:12.838Z,24.35
2022-08-24T02:22:44.277Z,24.36
2022-08-24T02:23:15.736Z,24.35
2022-08-24T02:23:47.193Z,24.35
2022-08-24T02:24:18.620Z,24.35
2022-08-24T02:24:50.050Z,24.33
2022-08-24T02:25:21.490Z,24.33
2022-08-24T02:25:52.945Z,24.34
2022-08-24T02:26:24.378Z,24.33
2022-08-24T02:27:01.809Z,24.33
2022-08-24T02:27:33.249Z,24.33
2022-08-24T02:28:04.686Z,24.32
2022-08-24T02:28:36.250Z,24.32
2022-08-24T02:29:07.672Z,24.32
2022-08-24T02:29:39.097Z,24.32
2022-08-24T02:30:10.531Z,24.31
2022-08-24T02:30:42.034Z,24.32
2022-08-24T02:31:13.531Z,24.31
2022-08-24T02:31:45.020Z,24.31
2022-08-24T02:32:16.447Z,24.31
2022-08-24T02:32:47.880Z,24.31
2022-08-24T02:33:19.314Z,24.30
2022-08-24T02:33:50.783Z,24.31
2022-08-24T02:34:22.268Z,24.31
2022-08-24T02:34:54.816Z,24.29
2022-08-24T02:35:26.461Z,24.29
2022-08-24T02:35:57.905Z,24.29
2022-08-24T02:36:29.346Z,24.30
2022-08-24T02:37:00.787Z,24.29
2022-08-24T02:37:32.221Z,24.29
2022-08-24T02:38:03.654Z,24.29
2022-08-24T02:38:35.084Z,24.28
2022-08-24T02:39:06.625Z,24.28
2022-08-24T02:39:38.059Z,24.28
2022-08-24T02:40:09.533Z,24.28
2022-08-24T02:40:40.988Z,24.27
2022-08-24T02:41:12.431Z,24.26
2022-08-24T02:41:44.555Z,24.26
2022-08-24T02:42:15.989Z,24.26
2022-08-24T02:42:47.424Z,24.27
2022-08-24T02:43:18.866Z,24.25
2022-08-24T02:43:50.297Z,24.25
2022-08-24T02:44:21.810Z,24.26
2022-08-24T02:44:53.695Z,24.25
2022-08-24T02:45:25.327Z,24.25
2022-08-24T02:45:56.817Z,24.25
2022-08-24T02:46:28.349Z,24.25
2022-08-24T02:46:59.836Z,24.24
2022-08-24T02:47:37.993Z,24.24
2022-08-24T02:48:10.579Z,24.24
2022-08-24T02:48:42.013Z,24.24
2022-08-24T02:49:13.451Z,24.24
2022-08-24T02:49:44.989Z,24.24
2022-08-24T02:50:16.443Z,24.23
2022-08-24T02:50:47.883Z,24.23
2022-08-24T02:51:19.312Z,24.23
2022-08-24T02:51:50.749Z,24.23
2022-08-24T02:52:22.271Z,24.22
2022-08-24T02:52:53.703Z,24.20
2022-08-24T02:53:25.895Z,24.21
2022-08-24T02:53:57.328Z,24.21
2022-08-24T02:54:28.756Z,24.21
2022-08-24T02:55:00.275Z,24.21
2022-08-24T02:55:31.700Z,24.21
2022-08-24T02:56:03.169Z,24.21
2022-08-24T02:56:34.605Z,24.20
2022-08-24T02:57:06.037Z,24.20
2022-08-24T02:57:38.768Z,24.20
2022-08-24T02:58:10.296Z,24.19
2022-08-24T02:58:41.736Z,24.19
2022-08-24T02:59:13.164Z,24.19
2022-08-24T02:59:44.601Z,24.19
2022-08-24T03:00:16.055Z,24.19
2022-08-24T03:00:47.482Z,24.19
2022-08-24T03:01:23.962Z,24.19
2022-08-24T03:02:01.683Z,24.18
2022-08-24T03:02:33.223Z,24.16
2022-08-24T03:03:04.816Z,24.17
2022-08-24T03:03:36.368Z,24.18
2022-08-24T03:04:07.803Z,24.17
2022-08-24T03:04:39.243Z,24.16
2022-08-24T03:05:10.780Z,24.18
2022-08-24T03:05:42.207Z,24.17
2022-08-24T03:06:13.632Z,24.17
2022-08-24T03:06:45.091Z,24.17
2022-08-24T03:07:16.528Z,24.17
2022-08-24T03:07:47.962Z,24.17
2022-08-24T03:08:19.408Z,24.17
2022-08-24T03:08:56.645Z,24.16
2022-08-24T03:09:28.752Z,24.16
2022-08-24T03:10:00.432Z,24.16
2022-08-24T03:10:32.012Z,24.16
2022-08-24T03:11:03.460Z,24.16
2022-08-24T03:11:34.897Z,24.15
2022-08-24T03:12:06.331Z,24.15
2022-08-24T03:12:37.765Z,24.14
2022-08-24T03:13:09.194Z,24.14
2022-08-24T03:13:40.624Z,24.14
2022-08-24T03:14:12.077Z,24.14
2022-08-24T03:14:43.500Z,24.13
2022-08-24T03:15:14.933Z,24.14
2022-08-24T03:15:46.655Z,24.13
2022-08-24T03:16:18.186Z,24.12
2022-08-24T03:16:49.654Z,24.13
2022-08-24T03:17:21.086Z,24.13
2022-08-24T03:17:52.519Z,24.11
2022-08-24T03:18:24.744Z,24.11
2022-08-24T03:18:56.326Z,24.11
2022-08-24T03:19:27.766Z,24.11
2022-08-24T03:19:59.209Z,24.12
2022-08-24T03:20:30.642Z,24.11
2022-08-24T03:21:02.171Z,24.10
2022-08-24T03:21:33.604Z,24.11
2022-08-24T03:22:05.029Z,24.10
2022-08-24T03:22:36.452Z,24.10
2022-08-24T03:23:07.871Z,24.09
2022-08-24T03:23:39.308Z,24.09
2022-08-24T03:24:10.733Z,24.09
2022-08-24T03:24:42.165Z,24.09
2022-08-24T03:25:13.617Z,24.09
2022-08-24T03:25:45.039Z,24.09
2022-08-24T03:26:16.488Z,24.09
2022-08-24T03:26:47.929Z,24.08
2022-08-24T03:27:19.359Z,24.08
2022-08-24T03:27:51.118Z,24.08
2022-08-24T03:28:24.035Z,24.08
2022-08-24T03:28:55.580Z,24.07
2022-08-24T03:29:27.017Z,24.08
2022-08-24T03:29:58.460Z,24.06
2022-08-24T03:30:29.932Z,24.06
2022-08-24T03:31:02.217Z,24.06
2022-08-24T03:31:33.767Z,24.06
2022-08-24T03:32:05.197Z,24.06
2022-08-24T03:32:36.629Z,24.06
2022-08-24T03:33:08.064Z,24.04
2022-08-24T03:33:43.485Z,24.05
2022-08-24T03:34:14.917Z,24.05
2022-08-24T03:34:46.343Z,24.06
2022-08-24T03:35:17.939Z,24.05
2022-08-24T03:35:49.376Z,24.04
2022-08-24T03:36:20.809Z,24.04
2022-08-24T03:36:52.272Z,24.03
2022-08-24T03:37:23.700Z,24.03
2022-08-24T03:37:55.131Z,24.03
2022-08-24T03:38:26.556Z,24.03
2022-08-24T03:38:57.987Z,24.03
2022-08-24T03:39:29.421Z,24.03
2022-08-24T03:40:00.871Z,24.03
2022-08-24T03:40:32.445Z,24.04
2022-08-24T03:41:03.909Z,24.03
2022-08-24T03:41:36.582Z,24.02
2022-08-24T03:42:08.246Z,24.03
2022-08-24T03:42:39.684Z,24.02
2022-08-24T03:43:11.116Z,24.01
2022-08-24T03:43:42.568Z,24.01
2022-08-24T03:44:13.988Z,24.01
2022-08-24T03:44:45.427Z,24.01
2022-08-24T03:45:16.853Z,24.01
2022-08-24T03:45:48.348Z,24.00
2022-08-24T03:46:19.860Z,24.00
2022-08-24T03:46:51.310Z,24.00
2022-08-24T03:47:22.822Z,24.01
2022-08-24T03:47:54.252Z,24.00
2022-08-24T03:48:25.677Z,23.99
2022-08-24T03:48:57.106Z,23.97
2022-08-24T03:49:28.540Z,23.97
2022-08-24T03:49:59.984Z,23.98
2022-08-24T03:50:31.413Z,23.97
2022-08-24T03:51:02.845Z,23.97
2022-08-24T03:51:34.271Z,23.96
2022-08-24T03:52:05.701Z,23.96
2022-08-24T03:52:37.180Z,23.97
2022-08-24T03:53:08.612Z,23.97
2022-08-24T03:53:40.041Z,23.98
2022-08-24T03:54:14.473Z,23.97
2022-08-24T03:54:45.909Z,23.97
2022-08-24T03:55:17.340Z,23.97
2022-08-24T03:55:48.760Z,23.96
2022-08-24T03:56:20.189Z,23.96
2022-08-24T03:56:51.617Z,23.96
2022-08-24T03:57:23.075Z,23.95
2022-08-24T03:57:54.620Z,23.94
2022-08-24T03:58:26.064Z,23.94
2022-08-24T03:58:59.931Z,23.95
2022-08-24T03:59:31.368Z,23.94
2022-08-24T04:00:02.802Z,23.94
2022-08-24T04:00:34.228Z,23.94
2022-08-24T04:01:05.715Z,23.93
2022-08-24T04:01:37.379Z,23.93
2022-08-24T04:02:08.932Z,23.93
2022-08-24T04:02:41.754Z,23.93
2022-08-24T04:03:13.281Z,23.93
2022-08-24T04:03:44.709Z,23.93
2022-08-24T04:04:16.136Z,23.93
2022-08-24T04:04:47.573Z,23.92
2022-08-24T04:05:18.998Z,23.93
2022-08-24T04:05:50.420Z,23.92
2022-08-24T04:06:23.188Z,23.92
2022-08-24T04:06:54.612Z,23.91
2022-08-24T04:07:26.041Z,23.91
2022-08-24T04:07:57.475Z,23.90
2022-08-24T04:08:28.988Z,23.91
2022-08-24T04:09:00.420Z,23.90
2022-08-24T04:09:31.965Z,23.90
2022-08-24T04:10:03.392Z,23.90
2022-08-24T04:10:34.816Z,23.89
2022-08-24T04:11:06.239Z,23.89
2022-08-24T04:11:41.077Z,23.90
2022-08-24T04:12:13.021Z,23.88
2022-08-24T04:12:44.449Z,23.89
2022-08-24T04:13:17.816Z,23.88
2022-08-24T04:13:49.273Z,23.89
2022-08-24T04:14:26.495Z,23.88
2022-08-24T04:14:59.086Z,23.87
2022-08-24T04:15:30.512Z,23.88
2022-08-24T04:16:02.574Z,23.88
2022-08-24T04:16:34.060Z,23.87
2022-08-24T04:17:05.527Z,23.88
2022-08-24T04:17:36.961Z,23.87
2022-08-24T04:18:08.396Z,23.87
2022-08-24T04:18:39.904Z,23.87
2022-08-24T04:19:11.328Z,23.87
2022-08-24T04:19:42.772Z,23.87
2022-08-24T04:20:14.200Z,23.86
2022-08-24T04:20:45.640Z,23.86
2022-08-24T04:21:17.072Z,23.87
2022-08-24T04:21:48.508Z,23.87
2022-08-24T04:22:19.933Z,23.87
2022-08-24T04:22:51.360Z,23.87
2022-08-24T04:23:23.887Z,23.86
2022-08-24T04:24:12.737Z,23.85
2022-08-24T04:24:44.166Z,23.86
2022-08-24T04:25:15.596Z,23.85
2022-08-24T04:25:47.027Z,23.85
2022-08-24T04:26:28.668Z,23.85
2022-08-24T04:27:09.869Z,23.84
2022-08-24T04:27:41.304Z,23.84
2022-08-24T04:28:12.745Z,23.83
2022-08-24T04:28:44.176Z,23.83
2022-08-24T04:29:15.635Z,23.82
2022-08-24T04:29:47.061Z,23.83
2022-08-24T04:30:18.491Z,23.83
2022-08-24T04:30:49.922Z,23.82
2022-08-24T04:31:21.405Z,23.82
2022-08-24T04:31:52.896Z,23.82
2022-08-24T04:32:24.395Z,23.82
2022-08-24T04:32:55.826Z,23.82
2022-08-24T04:33:27.268Z,23.81
2022-08-24T04:33:58.697Z,23.81
2022-08-24T04:34:30.132Z,23.81
2022-08-24T04:35:01.565Z,23.81
2022-08-24T04:35:32.995Z,23.81
2022-08-24T04:36:04.419Z,23.81
2022-08-24T04:36:35.840Z,23.80
2022-08-24T04:37:11.231Z,23.81
2022-08-24T04:37:42.913Z,23.80
2022-08-24T04:38:14.335Z,23.79
2022-08-24T04:38:45.774Z,23.80
2022-08-24T04:39:17.197Z,23.80
2022-08-24T04:39:48.691Z,23.79
2022-08-24T04:40:20.544Z,23.80
2022-08-24T04:40:52.009Z,23.79
2022-08-24T04:41:31.278Z,23.80
2022-08-24T04:42:03.679Z,23.79
2022-08-24T04:42:35.234Z,23.79
2022-08-24T04:43:06.661Z,23.79
2022-08-24T04:43:38.728Z,23.79
2022-08-24T04:44:10.172Z,23.78
2022-08-24T04:44:41.635Z,23.79
2022-08-24T04:45:13.070Z,23.79
2022-08-24T04:45:44.577Z,23.78
2022-08-24T04:46:16.143Z,23.79
2022-08-24T04:46:47.641Z,23.79
2022-08-24T04:47:19.072Z,23.78
2022-08-24T04:47:50.507Z,23.79
2022-08-24T04:48:21.942Z,23.78
2022-08-24T04:48:53.377Z,23.77
2022-08-24T04:49:24.806Z,23.78
2022-08-24T04:49:56.371Z,23.77
2022-08-24T04:50:27.869Z,23.77
2022-08-24T04:50:59.299Z,23.77
2022-08-24T04:51:32.804Z,23.76
2022-08-24T04:52:08.177Z,23.77
2022-08-24T04:52:39.613Z,23.78
2022-08-24T04:53:11.051Z,23.77
2022-08-24T04:53:42.485Z,23.77
2022-08-24T04:54:13.932Z,23.76
2022-08-24T04:54:45.363Z,23.76
2022-08-24T04:55:16.898Z,23.76
2022-08-24T04:55:48.327Z,23.77
2022-08-24T04:56:20.129Z,23.77
2022-08-24T04:56:51.782Z,23.76
2022-08-24T04:57:23.212Z,23.76
2022-08-24T04:57:54.656Z,23.76
2022-08-24T04:58:26.089Z,23.75
2022-08-24T04:58:57.565Z,23.76
2022-08-24T04:59:28.995Z,23.76
2022-08-24T05:00:00.428Z,23.75
2022-08-24T05:00:32.027Z,23.75
2022-08-24T05:01:03.520Z,23.74
2022-08-24T05:01:34.983Z,23.75
2022-08-24T05:02:06.479Z,23.76
2022-08-24T05:02:41.876Z,23.74
2022-08-24T05:03:16.065Z,23.75
2022-08-24T05:03:48.144Z,23.75
2022-08-24T05:04:19.576Z,23.73
2022-08-24T05:04:51.008Z,23.74
2022-08-24T05:05:22.452Z,23.75
2022-08-24T05:05:54.038Z,23.73
2022-08-24T05:06:25.466Z,23.75
2022-08-24T05:06:56.897Z,23.74
2022-08-24T05:07:28.331Z,23.74
2022-08-24T05:07:59.761Z,23.73
2022-08-24T05:08:31.195Z,23.74
2022-08-24T05:09:02.626Z,23.73
2022-08-24T05:09:34.054Z,23.73
2022-08-24T05:10:07.410Z,23.73
2022-08-24T05:10:40.371Z,23.73
2022-08-24T05:11:11.870Z,23.72
2022-08-24T05:11:49.666Z,23.73
2022-08-24T05:12:21.577Z,23.73
2022-08-24T05:12:53.012Z,23.71
2022-08-24T05:13:24.447Z,23.72
2022-08-24T05:13:55.883Z,23.71
2022-08-24T05:14:29.002Z,23.71
2022-08-24T05:15:00.614Z,23.72
2022-08-24T05:15:32.046Z,23.72
2022-08-24T05:16:03.528Z,23.72
2022-08-24T05:16:35.225Z,23.71
2022-08-24T05:17:10.475Z,23.72
2022-08-24T05:17:42.384Z,23.71
2022-08-24T05:18:18.183Z,23.70
2022-08-24T05:18:49.609Z,23.71
2022-08-24T05:19:21.047Z,23.70
2022-08-24T05:19:52.480Z,23.71
2022-08-24T05:20:23.909Z,23.71
2022-08-24T05:20:55.343Z,23.70
2022-08-24T05:21:26.887Z,23.70
2022-08-24T05:21:58.317Z,23.69
2022-08-24T05:22:29.749Z,23.70
2022-08-24T05:23:04.676Z,23.70
2022-08-24T05:23:36.233Z,23.69
2022-08-24T05:24:07.661Z,23.70
2022-08-24T05:24:39.092Z,23.69
2022-08-24T05:25:10.526Z,23.70
2022-08-24T05:25:41.955Z,23.69
2022-08-24T05:26:13.386Z,23.68
2022-08-24T05:26:44.938Z,23.67
2022-08-24T05:27:16.372Z,23.69
2022-08-24T05:27:50.452Z,23.68
2022-08-24T05:28:21.886Z,23.67
2022-08-24T05:28:57.747Z,23.68
2022-08-24T05:29:29.179Z,23.68
2022-08-24T05:30:00.609Z,23.70
2022-08-24T05:30:32.047Z,23.68
2022-08-24T05:31:03.507Z,23.68
2022-08-24T05:31:35.048Z,23.67
2022-08-24T05:32:06.563Z,23.68
2022-08-24T05:32:37.999Z,23.68
2022-08-24T05:33:09.432Z,23.68
2022-08-24T05:33:40.856Z,23.68
2022-08-24T05:34:12.287Z,23.68
2022-08-24T05:34:43.714Z,23.68
2022-08-24T05:35:15.192Z,23.68
2022-08-24T05:35:46.624Z,23.68
2022-08-24T05:36:18.065Z,23.67
2022-08-24T05:36:49.535Z,23.67
2022-08-24T05:37:20.960Z,23.66
2022-08-24T05:37:52.389Z,23.67
2022-08-24T05:38:23.829Z,23.68
2022-08-24T05:38:55.267Z,23.67
2022-08-24T05:39:26.696Z,23.68
2022-08-24T05:39:58.179Z,23.67
2022-08-24T05:40:33.304Z,23.68
2022-08-24T05:41:05.016Z,23.67
2022-08-24T05:41:36.450Z,23.67
2022-08-24T05:42:07.971Z,23.68
2022-08-24T05:42:39.404Z,23.67
2022-08-24T05:43:10.837Z,23.67
2022-08-24T05:43:42.272Z,23.67
2022-08-24T05:44:13.700Z,23.67
2022-08-24T05:44:45.137Z,23.67
2022-08-24T05:45:16.561Z,23.67
2022-08-24T05:45:48.002Z,23.66
2022-08-24T05:46:19.562Z,23.68
2022-08-24T05:46:52.542Z,23.67
2022-08-24T05:47:24.186Z,23.67
2022-08-24T05:47:55.620Z,23.67
2022-08-24T05:48:27.059Z,23.67
2022-08-24T05:48:58.488Z,23.66
2022-08-24T05:49:29.935Z,23.67
2022-08-24T05:50:01.370Z,23.68
2022-08-24T05:50:33.107Z,23.67
2022-08-24T05:51:04.528Z,23.67
2022-08-24T05:51:35.956Z,23.67
2022-08-24T05:52:07.386Z,23.67
2022-08-24T05:52:38.953Z,23.68
2022-08-24T05:53:10.393Z,23.67
2022-08-24T05:53:41.824Z,23.67
2022-08-24T05:54:13.254Z,23.66
2022-08-24T05:54:44.690Z,23.67
2022-08-24T05:55:16.120Z,23.68
2022-08-24T05:55:47.563Z,23.68
2022-08-24T05:56:18.987Z,23.68
2022-08-24T05:56:50.403Z,23.68
2022-08-24T05:57:21.830Z,23.68
2022-08-24T05:57:53.328Z,23.67
2022-08-24T05:58:30.742Z,23.68
2022-08-24T05:59:02.824Z,23.68
2022-08-24T05:59:34.253Z,23.68
2022-08-24T06:00:05.686Z,23.68
2022-08-24T06:00:37.121Z,23.68
2022-08-24T06:01:08.554Z,23.68
2022-08-24T06:01:44.591Z,23.68
2022-08-24T06:02:16.724Z,23.68
2022-08-24T06:02:48.280Z,23.67
2022-08-24T06:03:19.878Z,23.68
2022-08-24T06:03:51.308Z,23.68
2022-08-24T06:04:22.770Z,23.68
2022-08-24T06:04:56.379Z,23.68
2022-08-24T06:05:27.805Z,23.68
2022-08-24T06:05:59.232Z,23.68
2022-08-24T06:06:30.656Z,23.68
2022-08-24T06:07:02.087Z,23.69
2022-08-24T06:07:33.521Z,23.68
2022-08-24T06:08:04.947Z,23.68
2022-08-24T06:08:41.096Z,23.69
2022-08-24T06:09:13.011Z,23.69
2022-08-24T06:09:44.439Z,23.69
2022-08-24T06:10:35.771Z,23.68
2022-08-24T06:11:07.330Z,23.68
2022-08-24T06:11:39.058Z,23.69
2022-08-24T06:12:10.489Z,23.69
2022-08-24T06:12:41.922Z,23.69
2022-08-24T06:13:13.347Z,23.70
2022-08-24T06:13:44.918Z,23.69
2022-08-24T06:14:16.648Z,23.68
2022-08-24T06:14:48.081Z,23.70
2022-08-24T06:15:19.523Z,23.70
2022-08-24T06:16:10.902Z,23.69
2022-08-24T06:16:42.417Z,23.69
2022-08-24T06:17:14.019Z,23.70
2022-08-24T06:17:45.652Z,23.70
2022-08-24T06:18:17.225Z,23.70
2022-08-24T06:18:48.735Z,23.69
2022-08-24T06:19:20.161Z,23.70
2022-08-24T06:19:51.598Z,23.70
2022-08-24T06:20:23.030Z,23.70
2022-08-24T06:20:57.739Z,23.70
2022-08-24T06:21:29.432Z,23.70
2022-08-24T06:22:00.860Z,23.70
2022-08-24T06:22:32.297Z,23.71
2022-08-24T06:23:03.823Z,23.70
2022-08-24T06:23:35.393Z,23.71
2022-08-24T06:24:06.902Z,23.70
2022-08-24T06:24:38.340Z,23.72
2022-08-24T06:25:09.798Z,23.72
2022-08-24T06:25:41.233Z,23.71
2022-08-24T06:26:15.816Z,23.72
2022-08-24T06:26:50.022Z,23.72
2022-08-24T06:27:21.874Z,23.71
2022-08-24T06:27:53.300Z,23.72
2022-08-24T06:28:24.729Z,23.73
2022-08-24T06:28:56.163Z,23.73
2022-08-24T06:29:27.621Z,23.73
2022-08-24T06:29:59.058Z,23.73
2022-08-24T06:30:30.856Z,23.73
2022-08-24T06:31:02.406Z,23.74
2022-08-24T06:31:39.455Z,23.73
2022-08-24T06:32:11.488Z,23.73
2022-08-24T06:32:42.916Z,23.73
2022-08-24T06:33:14.436Z,23.74
2022-08-24T06:33:45.876Z,23.75
2022-08-24T06:34:17.309Z,23.74
2022-08-24T06:34:48.840Z,23.73
2022-08-24T06:35:20.964Z,23.75
2022-08-24T06:35:52.792Z,23.73
2022-08-24T06:36:24.221Z,23.74
2022-08-24T06:36:56.013Z,23.75
2022-08-24T06:37:34.862Z,23.75
2022-08-24T06:38:06.310Z,23.75
2022-08-24T06:38:37.945Z,23.76
2022-08-24T06:39:09.594Z,23.77
2022-08-24T06:39:41.613Z,23.76
2022-08-24T06:40:13.305Z,23.77
2022-08-24T06:40:44.804Z,23.77
2022-08-24T06:41:16.237Z,23.77
2022-08-24T06:41:47.699Z,23.78
2022-08-24T06:42:19.133Z,23.78
2022-08-24T06:42:50.579Z,23.78
2022-08-24T06:43:22.021Z,23.78
2022-08-24T06:43:53.449Z,23.78
2022-08-24T06:44:24.894Z,23.79
2022-08-24T06:44:56.328Z,23.78
2022-08-24T06:45:27.821Z,23.80
2022-08-24T06:45:59.261Z,23.80
2022-08-24T06:46:32.845Z,23.80
2022-08-24T06:47:04.717Z,23.81
2022-08-24T06:47:36.188Z,23.80
2022-08-24T06:48:07.674Z,23.81
2022-08-24T06:48:39.103Z,23.82
2022-08-24T06:49:10.535Z,23.81
2022-08-24T06:49:41.967Z,23.82
2022-08-24T06:50:13.395Z,23.82
2022-08-24T06:50:45.068Z,23.83
2022-08-24T06:51:16.511Z,23.82